Aviation Digital Data Service (ADDS)

Output produced by METARs form (1208 UTC 15 December 2017)
found at http://aviationweather.gov/adds/metars/
 
KLBT 151129Z 1512/1612 26009KT P6SM SCT150 BKN200 
     FM152200 32005KT P6SM BKN140 
     FM160400 VRB02KT P6SM SCT180 BKN250